createdAt,value
2019-05-22T00:00:12.772Z,49.50
2019-05-22T00:02:44.550Z,49.50
2019-05-22T00:05:15.038Z,49.50
2019-05-22T00:07:48.826Z,50.10
2019-05-22T00:10:19.559Z,49.60
2019-05-22T00:12:49.749Z,49.50
2019-05-22T00:15:20.246Z,49.50
2019-05-22T00:17:50.205Z,49.60
2019-05-22T00:20:20.123Z,49.50
2019-05-22T00:22:48.441Z,49.50
2019-05-22T00:25:18.358Z,49.50
2019-05-22T00:27:47.585Z,49.60
2019-05-22T00:30:17.494Z,49.60
2019-05-22T00:32:48.211Z,49.60
2019-05-22T00:35:16.653Z,49.60
2019-05-22T00:37:45.991Z,49.60
2019-05-22T00:40:15.437Z,49.60
2019-05-22T00:42:45.681Z,49.60
2019-05-22T00:45:14.834Z,50.20
2019-05-22T00:47:44.236Z,49.60
2019-05-22T00:50:21.613Z,49.70
2019-05-22T00:52:52.205Z,49.60
2019-05-22T00:55:41.282Z,49.60
2019-05-22T00:58:21.041Z,49.50
2019-05-22T01:00:53.714Z,49.00
2019-05-22T01:03:22.553Z,49.60
2019-05-22T01:05:51.392Z,49.50
2019-05-22T01:08:21.506Z,49.50
2019-05-22T01:10:50.947Z,49.50
2019-05-22T01:13:20.954Z,49.80
2019-05-22T01:15:51.413Z,49.60
2019-05-22T01:18:21.741Z,49.60
2019-05-22T01:20:51.576Z,49.60
2019-05-22T01:23:21.945Z,49.60
2019-05-22T01:25:51.771Z,49.60
2019-05-22T01:28:21.786Z,49.60
2019-05-22T01:30:54.700Z,49.60
2019-05-22T01:33:25.752Z,49.60
2019-05-22T01:35:56.334Z,49.70
2019-05-22T01:38:26.301Z,49.60
2019-05-22T01:41:11.287Z,49.60
2019-05-22T01:43:39.942Z,49.60
2019-05-22T01:46:09.657Z,49.60
2019-05-22T01:48:38.601Z,49.60
2019-05-22T01:51:07.117Z,49.70
2019-05-22T01:53:38.689Z,49.70
2019-05-22T01:56:07.913Z,49.70
2019-05-22T01:58:37.295Z,49.70
2019-05-22T02:01:07.177Z,49.70
2019-05-22T02:03:36.524Z,49.60
2019-05-22T02:06:05.959Z,49.70
2019-05-22T02:08:37.845Z,49.70
2019-05-22T02:11:07.060Z,49.70
2019-05-22T02:13:38.841Z,49.70
2019-05-22T02:16:09.016Z,49.70
2019-05-22T02:18:39.296Z,49.60
2019-05-22T02:21:07.730Z,49.70
2019-05-22T02:23:38.044Z,49.60
2019-05-22T02:26:07.370Z,49.60
2019-05-22T02:28:36.778Z,50.30
2019-05-22T02:31:06.966Z,49.60
2019-05-22T02:33:37.885Z,49.70
2019-05-22T02:36:06.707Z,49.60
2019-05-22T02:38:35.339Z,49.70
2019-05-22T02:41:04.450Z,49.60
2019-05-22T02:43:33.386Z,49.60
2019-05-22T02:46:01.693Z,49.70
2019-05-22T02:48:31.467Z,49.60
2019-05-22T02:50:59.724Z,49.60
2019-05-22T02:53:28.669Z,49.60
2019-05-22T02:55:57.836Z,49.60
2019-05-22T02:58:27.559Z,49.60
2019-05-22T03:01:03.107Z,49.60
2019-05-22T03:03:32.076Z,49.60
2019-05-22T03:06:00.556Z,49.60
2019-05-22T03:08:49.616Z,50.20
2019-05-22T03:11:18.127Z,49.60
2019-05-22T03:13:57.494Z,49.60
2019-05-22T03:16:26.398Z,49.60
2019-05-22T03:19:08.414Z,49.60
2019-05-22T03:21:25.182Z,49.60
2019-05-22T03:23:53.508Z,49.60
2019-05-22T03:26:24.551Z,49.50
2019-05-22T03:28:53.402Z,49.50
2019-05-22T03:31:21.958Z,49.50
2019-05-22T03:33:50.634Z,49.50
2019-05-22T03:36:18.968Z,49.50
2019-05-22T03:38:47.654Z,49.50
2019-05-22T03:41:16.696Z,49.50
2019-05-22T03:43:46.190Z,49.50
2019-05-22T03:46:31.037Z,49.50
2019-05-22T03:48:59.991Z,49.30
2019-05-22T03:51:28.241Z,49.50
2019-05-22T03:53:57.066Z,49.50
2019-05-22T03:56:25.710Z,49.50
2019-05-22T03:58:55.471Z,49.60
2019-05-22T04:01:24.020Z,49.40
2019-05-22T04:03:52.285Z,49.50
2019-05-22T04:06:20.860Z,49.40
2019-05-22T04:08:50.754Z,49.40
2019-05-22T04:11:19.061Z,49.40
2019-05-22T04:13:47.634Z,50.00
2019-05-22T04:16:17.830Z,49.40
2019-05-22T04:18:47.094Z,49.30
2019-05-22T04:21:15.376Z,49.30
2019-05-22T04:23:43.722Z,50.00
2019-05-22T04:26:13.766Z,49.30
2019-05-22T04:28:50.918Z,49.30
2019-05-22T04:31:19.659Z,49.30
2019-05-22T04:33:48.266Z,49.30
2019-05-22T04:36:16.776Z,49.30
2019-05-22T04:38:45.106Z,49.30
2019-05-22T04:41:13.722Z,49.30
2019-05-22T04:43:42.238Z,49.30
2019-05-22T04:46:11.457Z,49.30
2019-05-22T04:48:40.074Z,49.30
2019-05-22T04:51:24.023Z,49.30
2019-05-22T04:53:52.538Z,49.20
2019-05-22T04:56:21.326Z,49.20
2019-05-22T04:58:49.653Z,49.20
2019-05-22T05:01:17.961Z,49.30
2019-05-22T05:03:46.286Z,49.30
2019-05-22T05:06:15.031Z,49.30
2019-05-22T05:08:44.473Z,49.20
2019-05-22T05:11:13.305Z,49.20
2019-05-22T05:13:41.570Z,49.30
2019-05-22T05:16:09.813Z,49.20
2019-05-22T05:18:38.141Z,49.30
2019-05-22T05:21:06.717Z,49.30
2019-05-22T05:23:35.292Z,49.30
2019-05-22T05:26:03.571Z,49.20
2019-05-22T05:28:31.822Z,49.30
2019-05-22T05:31:00.442Z,49.30
2019-05-22T05:33:28.980Z,49.90
2019-05-22T05:35:57.581Z,49.30
2019-05-22T05:38:34.435Z,49.30
2019-05-22T05:41:02.882Z,49.40
2019-05-22T05:43:31.468Z,49.20
2019-05-22T05:45:59.790Z,49.20
2019-05-22T05:48:28.961Z,49.20
2019-05-22T05:51:06.950Z,49.20
2019-05-22T05:53:40.119Z,49.20
2019-05-22T05:56:13.941Z,49.20
2019-05-22T05:58:42.538Z,49.20
2019-05-22T06:01:20.105Z,49.20
2019-05-22T06:03:48.609Z,49.20
2019-05-22T06:06:27.185Z,49.30
2019-05-22T06:09:00.625Z,49.20
2019-05-22T06:11:35.754Z,49.30
2019-05-22T06:14:08.560Z,49.20
2019-05-22T06:16:50.147Z,49.20
2019-05-22T06:19:19.796Z,49.20
2019-05-22T06:21:49.401Z,49.20
2019-05-22T06:24:32.977Z,49.20
2019-05-22T06:27:14.774Z,49.20
2019-05-22T06:30:00.982Z,49.20
2019-05-22T06:32:52.534Z,49.20
2019-05-22T06:35:21.072Z,49.20
2019-05-22T06:38:02.147Z,49.20
2019-05-22T06:40:31.024Z,49.20
2019-05-22T06:43:21.678Z,49.20
2019-05-22T06:45:50.007Z,49.20
2019-05-22T06:48:18.599Z,49.20
2019-05-22T06:50:49.254Z,49.20
2019-05-22T06:53:16.986Z,49.20
2019-05-22T06:55:45.286Z,49.40
2019-05-22T06:58:13.805Z,49.30
2019-05-22T07:00:42.345Z,49.20
2019-05-22T07:03:11.665Z,49.30
2019-05-22T07:05:40.370Z,49.30
2019-05-22T07:08:09.303Z,49.20
2019-05-22T07:10:39.093Z,49.20
2019-05-22T07:13:09.428Z,49.20
2019-05-22T07:15:39.551Z,49.90
2019-05-22T07:18:12.417Z,49.30
2019-05-22T07:20:40.016Z,49.30
2019-05-22T07:23:09.974Z,49.30
2019-05-22T07:25:39.901Z,49.20
2019-05-22T07:28:08.158Z,49.30
2019-05-22T07:30:36.645Z,49.20
2019-05-22T07:33:05.785Z,49.20
2019-05-22T07:35:49.887Z,49.30
2019-05-22T07:38:04.298Z,49.30
2019-05-22T07:40:32.948Z,49.30
2019-05-22T07:43:01.512Z,49.30
2019-05-22T07:45:30.662Z,49.30
2019-05-22T07:47:59.083Z,49.30
2019-05-22T07:50:29.173Z,49.30
2019-05-22T07:52:57.847Z,49.20
2019-05-22T07:55:26.927Z,49.20
2019-05-22T07:58:09.801Z,49.30
2019-05-22T08:00:41.106Z,49.30
2019-05-22T08:03:09.540Z,49.30
2019-05-22T08:05:38.790Z,49.30
2019-05-22T08:08:07.984Z,49.30
2019-05-22T08:10:36.564Z,49.30
2019-05-22T08:13:04.918Z,49.30
2019-05-22T08:15:33.245Z,49.30
2019-05-22T08:18:01.780Z,49.30
2019-05-22T08:20:30.893Z,49.30
2019-05-22T08:23:00.620Z,49.30
2019-05-22T08:25:28.885Z,49.30
2019-05-22T08:27:57.407Z,49.30
2019-05-22T08:30:25.803Z,49.30
2019-05-22T08:32:54.476Z,49.20
2019-05-22T08:35:22.840Z,49.20
2019-05-22T08:37:51.646Z,49.20
2019-05-22T08:40:20.214Z,49.20
2019-05-22T08:42:48.874Z,49.20
2019-05-22T08:45:18.780Z,49.30
2019-05-22T08:47:47.055Z,49.20
2019-05-22T08:50:17.070Z,49.20
2019-05-22T08:52:45.425Z,49.30
2019-05-22T08:55:14.362Z,49.10
2019-05-22T08:57:42.781Z,49.10
2019-05-22T09:00:12.655Z,49.10
2019-05-22T09:02:41.075Z,49.10
2019-05-22T09:05:09.345Z,49.10
2019-05-22T09:07:38.163Z,49.10
2019-05-22T09:10:06.681Z,49.10
2019-05-22T09:12:34.930Z,49.10
2019-05-22T09:15:03.686Z,49.10
2019-05-22T09:17:32.348Z,49.10
2019-05-22T09:20:01.859Z,49.10
2019-05-22T09:22:39.936Z,49.10
2019-05-22T09:25:02.836Z,49.80
2019-05-22T09:27:31.690Z,49.00
2019-05-22T09:30:00.285Z,49.10
2019-05-22T09:32:28.581Z,49.00
2019-05-22T09:34:57.028Z,49.60
2019-05-22T09:37:25.314Z,49.00
2019-05-22T09:39:53.670Z,49.00
2019-05-22T09:42:22.160Z,49.00
2019-05-22T09:44:50.444Z,48.90
2019-05-22T09:47:19.621Z,49.00
2019-05-22T09:49:48.462Z,49.00
2019-05-22T09:52:16.837Z,49.00
2019-05-22T09:54:45.092Z,49.00
2019-05-22T09:57:13.890Z,48.90
2019-05-22T09:59:42.159Z,49.00
2019-05-22T10:02:10.838Z,49.00
2019-05-22T10:04:39.114Z,49.00
2019-05-22T10:07:07.385Z,49.00
2019-05-22T10:09:35.916Z,49.00
2019-05-22T10:12:04.553Z,49.10
2019-05-22T10:14:33.352Z,49.00
2019-05-22T10:17:01.965Z,49.00
2019-05-22T10:19:30.498Z,49.00
2019-05-22T10:21:58.973Z,48.90
2019-05-22T10:24:27.338Z,48.90
2019-05-22T10:26:55.938Z,48.90
2019-05-22T10:29:24.461Z,48.90
2019-05-22T10:31:52.987Z,48.70
2019-05-22T10:34:21.264Z,48.60
2019-05-22T10:36:49.776Z,48.60
2019-05-22T10:39:18.726Z,48.60
2019-05-22T10:41:46.974Z,48.50
2019-05-22T10:44:15.528Z,48.40
2019-05-22T10:46:44.221Z,48.40
2019-05-22T10:49:12.794Z,48.40
2019-05-22T10:51:41.064Z,48.30
2019-05-22T10:54:09.591Z,48.20
2019-05-22T10:56:37.833Z,48.20
2019-05-22T10:59:06.761Z,48.10
2019-05-22T11:01:37.538Z,48.20
2019-05-22T11:04:05.600Z,48.20
2019-05-22T11:06:34.038Z,48.30
2019-05-22T11:09:02.316Z,49.30
2019-05-22T11:11:31.004Z,48.90
2019-05-22T11:14:01.776Z,49.20
2019-05-22T11:16:29.968Z,49.20
2019-05-22T11:18:58.436Z,49.40
2019-05-22T11:21:26.697Z,49.30
2019-05-22T11:23:54.965Z,49.80
2019-05-22T11:26:23.238Z,50.10
2019-05-22T11:28:51.578Z,49.80
2019-05-22T11:31:19.969Z,49.50
2019-05-22T11:33:48.276Z,49.70
2019-05-22T11:36:17.254Z,49.50
2019-05-22T11:38:45.796Z,49.80
2019-05-22T11:41:14.045Z,49.60
2019-05-22T11:43:42.869Z,49.70
2019-05-22T11:46:11.121Z,49.40
2019-05-22T11:48:39.392Z,49.30
2019-05-22T11:51:07.730Z,49.30
2019-05-22T11:53:35.974Z,49.30
2019-05-22T11:56:04.246Z,49.10
2019-05-22T11:58:32.699Z,49.10
2019-05-22T12:01:01.539Z,49.10
2019-05-22T12:03:31.391Z,49.10
2019-05-22T12:05:59.665Z,48.90
2019-05-22T12:08:27.922Z,48.80
2019-05-22T12:10:56.233Z,49.00
2019-05-22T12:13:24.672Z,49.00
2019-05-22T12:15:53.278Z,48.90
2019-05-22T12:18:21.527Z,49.60
2019-05-22T12:20:49.878Z,49.30
2019-05-22T12:23:18.139Z,49.50
2019-05-22T12:25:46.421Z,49.50
2019-05-22T12:28:14.837Z,49.30
2019-05-22T12:30:44.038Z,49.50
2019-05-22T12:33:14.190Z,49.30
2019-05-22T12:35:43.294Z,49.90
2019-05-22T12:38:13.076Z,49.70
2019-05-22T12:40:41.700Z,50.30
2019-05-22T12:43:10.325Z,50.40
2019-05-22T12:45:38.607Z,50.30
2019-05-22T12:48:06.890Z,50.00
2019-05-22T12:50:35.652Z,50.20
2019-05-22T12:53:05.538Z,50.10
2019-05-22T12:55:33.976Z,50.10
2019-05-22T12:58:03.190Z,50.00
2019-05-22T13:00:33.751Z,50.20
2019-05-22T13:03:02.561Z,51.00
2019-05-22T13:05:31.265Z,50.90
2019-05-22T13:07:59.702Z,50.20
2019-05-22T13:10:28.727Z,50.20
2019-05-22T13:12:57.724Z,50.20
2019-05-22T13:15:26.311Z,50.40
2019-05-22T13:17:54.942Z,50.40
2019-05-22T13:20:41.217Z,50.40
2019-05-22T13:22:53.561Z,50.40
2019-05-22T13:25:22.594Z,50.50
2019-05-22T13:27:51.229Z,50.50
2019-05-22T13:30:19.992Z,50.40
2019-05-22T13:32:48.920Z,50.50
2019-05-22T13:35:17.673Z,50.60
2019-05-22T13:37:46.371Z,50.70
2019-05-22T13:40:27.218Z,50.90
2019-05-22T13:42:45.104Z,50.60
2019-05-22T13:45:28.617Z,50.50
2019-05-22T13:47:44.314Z,51.00
2019-05-22T13:50:13.229Z,51.00
2019-05-22T13:52:41.703Z,51.00
2019-05-22T13:55:10.576Z,51.80
2019-05-22T13:57:40.974Z,51.20
2019-05-22T14:00:09.839Z,51.00
2019-05-22T14:02:38.634Z,51.40
2019-05-22T14:05:07.550Z,51.40
2019-05-22T14:07:35.939Z,51.40
2019-05-22T14:10:05.497Z,51.50
2019-05-22T14:12:33.772Z,51.80
2019-05-22T14:15:02.113Z,51.60
2019-05-22T14:17:30.353Z,51.90
2019-05-22T14:19:58.629Z,52.10
2019-05-22T14:22:26.904Z,52.30
2019-05-22T14:24:55.294Z,52.00
2019-05-22T14:27:24.350Z,52.60
2019-05-22T14:29:53.137Z,52.90
2019-05-22T14:32:21.754Z,53.00
2019-05-22T14:34:50.304Z,52.70
2019-05-22T14:37:18.989Z,52.90
2019-05-22T14:39:47.237Z,53.30
2019-05-22T14:42:16.926Z,53.20
2019-05-22T14:44:45.728Z,53.40
2019-05-22T14:47:16.472Z,53.60
2019-05-22T14:49:44.196Z,53.70
2019-05-22T14:52:12.873Z,53.80
2019-05-22T14:54:41.149Z,54.10
2019-05-22T14:57:09.570Z,54.20
2019-05-22T14:59:37.871Z,54.40
2019-05-22T15:02:08.041Z,54.10
2019-05-22T15:04:36.973Z,54.20
2019-05-22T15:07:05.690Z,54.10
2019-05-22T15:09:33.959Z,54.40
2019-05-22T15:12:02.554Z,54.40
2019-05-22T15:14:30.845Z,54.50
2019-05-22T15:16:59.141Z,54.80
2019-05-22T15:19:28.086Z,54.40
2019-05-22T15:21:58.368Z,54.30
2019-05-22T15:24:26.970Z,54.30
2019-05-22T15:26:55.235Z,54.50
2019-05-22T15:29:23.498Z,54.30
2019-05-22T15:31:52.346Z,54.30
2019-05-22T15:34:20.585Z,54.50
2019-05-22T15:36:49.200Z,54.50
2019-05-22T15:39:20.365Z,54.20
2019-05-22T15:41:49.426Z,54.40
2019-05-22T15:44:19.153Z,54.40
2019-05-22T15:46:48.246Z,54.20
2019-05-22T15:49:17.845Z,54.40
2019-05-22T15:51:46.365Z,54.40
2019-05-22T15:54:14.632Z,54.10
2019-05-22T15:56:43.291Z,53.90
2019-05-22T15:59:11.753Z,54.00
2019-05-22T16:01:40.077Z,53.80
2019-05-22T16:04:10.226Z,53.70
2019-05-22T16:06:38.573Z,53.70
2019-05-22T16:09:08.254Z,53.60
2019-05-22T16:11:36.663Z,53.60
2019-05-22T16:14:05.153Z,53.40
2019-05-22T16:16:34.237Z,53.60
2019-05-22T16:19:04.922Z,53.50
2019-05-22T16:21:33.533Z,53.50
2019-05-22T16:24:02.075Z,53.40
2019-05-22T16:26:30.778Z,53.60
2019-05-22T16:28:59.221Z,53.40
2019-05-22T16:31:27.946Z,53.40
2019-05-22T16:33:56.221Z,53.20
2019-05-22T16:36:24.861Z,53.20
2019-05-22T16:38:53.622Z,53.10
2019-05-22T16:41:23.245Z,53.30
2019-05-22T16:43:52.147Z,53.40
2019-05-22T16:46:21.072Z,53.30
2019-05-22T16:48:49.440Z,53.40
2019-05-22T16:51:18.373Z,53.40
2019-05-22T16:53:51.989Z,53.10
2019-05-22T16:56:21.094Z,53.20
2019-05-22T16:58:49.894Z,53.20
2019-05-22T17:01:18.763Z,53.10
2019-05-22T17:03:47.785Z,53.20
2019-05-22T17:06:16.156Z,53.30
2019-05-22T17:08:45.055Z,53.40
2019-05-22T17:11:13.342Z,53.60
2019-05-22T17:13:42.037Z,53.70
2019-05-22T17:16:10.569Z,53.70
2019-05-22T17:18:47.675Z,53.80
2019-05-22T17:21:09.681Z,53.40
2019-05-22T17:23:38.013Z,53.00
2019-05-22T17:26:06.369Z,53.20
2019-05-22T17:28:34.646Z,53.30
2019-05-22T17:31:03.641Z,53.30
2019-05-22T17:33:32.093Z,53.20
2019-05-22T17:36:00.530Z,53.10
2019-05-22T17:38:29.587Z,53.10
2019-05-22T17:40:58.208Z,53.60
2019-05-22T17:43:26.452Z,52.90
2019-05-22T17:45:55.256Z,52.90
2019-05-22T17:48:24.008Z,52.80
2019-05-22T17:50:52.603Z,52.70
2019-05-22T17:53:20.941Z,52.60
2019-05-22T17:55:49.577Z,52.60
2019-05-22T17:58:18.446Z,52.60
2019-05-22T18:00:51.293Z,52.40
2019-05-22T18:03:19.916Z,52.30
2019-05-22T18:05:48.773Z,52.80
2019-05-22T18:08:18.106Z,52.10
2019-05-22T18:10:48.599Z,52.00
2019-05-22T18:13:17.013Z,52.00
2019-05-22T18:15:46.522Z,51.90
2019-05-22T18:18:14.771Z,51.80
2019-05-22T18:20:44.286Z,51.80
2019-05-22T18:23:13.112Z,52.30
2019-05-22T18:25:42.035Z,51.80
2019-05-22T18:28:10.765Z,51.70
2019-05-22T18:30:40.701Z,51.60
2019-05-22T18:33:08.973Z,51.60
2019-05-22T18:35:37.465Z,51.60
2019-05-22T18:38:05.745Z,51.50
2019-05-22T18:40:34.084Z,51.50
2019-05-22T18:43:02.345Z,51.50
2019-05-22T18:45:31.382Z,51.60
2019-05-22T18:47:59.829Z,51.50
2019-05-22T18:50:28.287Z,51.40
2019-05-22T18:52:56.776Z,51.50
2019-05-22T18:55:25.041Z,51.40
2019-05-22T18:57:53.314Z,51.40
2019-05-22T19:00:23.294Z,51.40
2019-05-22T19:02:51.597Z,51.30
2019-05-22T19:05:22.184Z,51.30
2019-05-22T19:07:50.977Z,51.30
2019-05-22T19:10:19.968Z,51.30
2019-05-22T19:12:48.286Z,51.30
2019-05-22T19:15:16.833Z,51.40
2019-05-22T19:17:45.097Z,51.30
2019-05-22T19:20:13.381Z,51.30
2019-05-22T19:22:56.763Z,51.30
2019-05-22T19:25:11.749Z,51.30
2019-05-22T19:27:40.473Z,51.30
2019-05-22T19:30:09.281Z,51.40
2019-05-22T19:32:37.535Z,51.40
2019-05-22T19:35:07.246Z,51.50
2019-05-22T19:37:35.857Z,51.50
2019-05-22T19:40:06.330Z,51.50
2019-05-22T19:42:34.874Z,51.50
2019-05-22T19:45:05.883Z,51.50
2019-05-22T19:47:34.887Z,51.50
2019-05-22T19:50:05.184Z,51.60
2019-05-22T19:52:41.352Z,51.60
2019-05-22T19:55:07.425Z,51.70
2019-05-22T19:57:35.958Z,51.70
2019-05-22T20:00:04.933Z,51.70
2019-05-22T20:02:33.250Z,51.70
2019-05-22T20:05:02.380Z,51.70
2019-05-22T20:07:32.257Z,51.80
2019-05-22T20:10:01.329Z,51.70
2019-05-22T20:12:30.190Z,51.60
2019-05-22T20:14:59.228Z,51.80
2019-05-22T20:17:27.757Z,52.00
2019-05-22T20:19:56.005Z,51.70
2019-05-22T20:22:24.253Z,51.60
2019-05-22T20:24:52.518Z,51.60
2019-05-22T20:27:20.862Z,51.70
2019-05-22T20:29:49.197Z,52.50
2019-05-22T20:32:17.942Z,51.60
2019-05-22T20:34:47.594Z,51.50
2019-05-22T20:37:16.121Z,51.60
2019-05-22T20:39:44.847Z,51.50
2019-05-22T20:42:13.155Z,51.40
2019-05-22T20:44:42.487Z,51.50
2019-05-22T20:47:10.868Z,51.30
2019-05-22T20:49:40.162Z,51.30
2019-05-22T20:52:10.941Z,51.20
2019-05-22T20:54:39.332Z,51.10
2019-05-22T20:57:08.692Z,51.70
2019-05-22T20:59:38.766Z,51.00
2019-05-22T21:02:08.656Z,50.90
2019-05-22T21:04:37.708Z,50.80
2019-05-22T21:07:07.217Z,50.80
2019-05-22T21:09:35.759Z,50.60
2019-05-22T21:12:05.157Z,50.60
2019-05-22T21:14:33.425Z,50.50
2019-05-22T21:17:02.243Z,50.50
2019-05-22T21:19:32.308Z,50.40
2019-05-22T21:22:00.557Z,50.30
2019-05-22T21:24:28.831Z,50.30
2019-05-22T21:26:57.354Z,50.10
2019-05-22T21:29:25.913Z,50.00
2019-05-22T21:31:54.433Z,50.00
2019-05-22T21:34:22.967Z,49.90
2019-05-22T21:36:51.198Z,49.80
2019-05-22T21:39:20.018Z,49.70
2019-05-22T21:41:48.449Z,49.60
2019-05-22T21:44:17.358Z,49.50
2019-05-22T21:46:46.362Z,49.70
2019-05-22T21:49:15.685Z,49.60
2019-05-22T21:51:43.957Z,49.50
2019-05-22T21:54:12.409Z,49.40
2019-05-22T21:56:41.698Z,49.30
2019-05-22T21:59:10.728Z,49.20
2019-05-22T22:01:40.725Z,49.20
2019-05-22T22:04:13.412Z,49.00
2019-05-22T22:06:41.937Z,48.80
2019-05-22T22:09:10.891Z,48.70
2019-05-22T22:11:39.325Z,48.60
2019-05-22T22:14:07.984Z,48.50
2019-05-22T22:16:36.569Z,48.40
2019-05-22T22:19:05.450Z,48.30
2019-05-22T22:21:33.765Z,48.10
2019-05-22T22:24:02.026Z,48.00
2019-05-22T22:26:30.911Z,47.90
2019-05-22T22:28:59.297Z,47.80
2019-05-22T22:31:29.641Z,47.80
2019-05-22T22:34:07.237Z,47.50
2019-05-22T22:36:35.877Z,47.50
2019-05-22T22:39:07.956Z,47.30
2019-05-22T22:41:36.776Z,47.20
2019-05-22T22:44:06.982Z,47.10
2019-05-22T22:46:39.992Z,47.00
2019-05-22T22:49:11.749Z,46.90
2019-05-22T22:51:41.081Z,46.80
2019-05-22T22:54:09.885Z,47.40
2019-05-22T22:56:39.860Z,46.60
2019-05-22T22:59:08.230Z,46.50
2019-05-22T23:01:37.443Z,46.40
2019-05-22T23:04:06.262Z,46.30
2019-05-22T23:06:36.209Z,46.20
2019-05-22T23:09:05.197Z,46.10
2019-05-22T23:11:34.711Z,45.90
2019-05-22T23:14:03.062Z,45.90
2019-05-22T23:16:32.437Z,45.70
2019-05-22T23:19:14.493Z,45.60
2019-05-22T23:21:41.909Z,45.50
2019-05-22T23:24:10.925Z,45.50
2019-05-22T23:26:40.464Z,45.30
2019-05-22T23:29:08.742Z,45.20
2019-05-22T23:31:38.387Z,45.00
2019-05-22T23:34:06.989Z,45.00
2019-05-22T23:36:35.447Z,44.90
2019-05-22T23:39:07.126Z,44.80
2019-05-22T23:41:37.041Z,44.60
2019-05-22T23:44:07.368Z,44.40
2019-05-22T23:46:35.978Z,44.40
2019-05-22T23:49:04.243Z,44.30
2019-05-22T23:51:33.077Z,44.20
2019-05-22T23:54:01.701Z,44.10
2019-05-22T23:56:30.552Z,44.00
2019-05-22T23:58:59.290Z,43.90
